sensor_id;sensor_type;location;lat;lon;timestamp;pressure;altitude;pressure_sealevel;temperature;humidity
42633;BME280;28261;53.304;-6.284;2022-12-07T00:00:20;102336.75;;;4.01;100.00
42633;BME280;28261;53.304;-6.284;2022-12-07T00:02:25;102337.66;;;3.98;100.00
42633;BME280;28261;53.304;-6.284;2022-12-07T00:04:41;102332.47;;;3.95;100.00
42633;BME280;28261;53.304;-6.284;2022-12-07T00:06:51;102333.34;;;3.94;100.00
42633;BME280;28261;53.304;-6.284;2022-12-07T00:08:56;102329.00;;;3.92;100.00
42633;BME280;28261;53.304;-6.284;2022-12-07T00:11:02;102329.03;;;3.90;100.00
42633;BME280;28261;53.304;-6.284;2022-12-07T00:13:08;102332.56;;;3.87;100.00
42633;BME280;28261;53.304;-6.284;2022-12-07T00:15:12;102328.22;;;3.85;100.00
42633;BME280;28261;53.304;-6.284;2022-12-07T00:17:16;102328.22;;;3.83;100.00
42633;BME280;28261;53.304;-6.284;2022-12-07T00:19:20;102328.31;;;3.79;100.00
42633;BME280;28261;53.304;-6.284;2022-12-07T00:21:25;102323.06;;;3.77;100.00
42633;BME280;28261;53.304;-6.284;2022-12-07T00:23:29;102320.47;;;3.74;100.00
42633;BME280;28261;53.304;-6.284;2022-12-07T00:25:33;102316.13;;;3.71;100.00
42633;BME280;28261;53.304;-6.284;2022-12-07T00:27:37;102316.16;;;3.70;100.00
42633;BME280;28261;53.304;-6.284;2022-12-07T00:29:43;102317.06;;;3.67;100.00
42633;BME280;28261;53.304;-6.284;2022-12-07T00:31:47;102324.09;;;3.65;100.00
42633;BME280;28261;53.304;-6.284;2022-12-07T00:33:51;102321.50;;;3.61;100.00
42633;BME280;28261;53.304;-6.284;2022-12-07T00:35:56;102315.47;;;3.57;100.00
42633;BME280;28261;53.304;-6.284;2022-12-07T00:41:21;102312.84;;;3.55;100.00
42633;BME280;28261;53.304;-6.284;2022-12-07T00:43:50;102314.63;;;3.53;100.00
42633;BME280;28261;53.304;-6.284;2022-12-07T00:46:03;102313.78;;;3.51;100.00
42633;BME280;28261;53.304;-6.284;2022-12-07T00:48:10;102307.63;;;3.52;100.00
42633;BME280;28261;53.304;-6.284;2022-12-07T00:50:18;102318.09;;;3.54;100.00
42633;BME280;28261;53.304;-6.284;2022-12-07T00:52:23;102310.22;;;3.54;100.00
42633;BME280;28261;53.304;-6.284;2022-12-07T00:54:29;102308.47;;;3.56;100.00
42633;BME280;28261;53.304;-6.284;2022-12-07T00:56:40;102314.53;;;3.58;100.00
42633;BME280;28261;53.304;-6.284;2022-12-07T00:58:51;102310.16;;;3.60;100.00
42633;BME280;28261;53.304;-6.284;2022-12-07T01:01:08;102307.53;;;3.62;100.00
42633;BME280;28261;53.304;-6.284;2022-12-07T01:03:22;102309.25;;;3.63;100.00
42633;BME280;28261;53.304;-6.284;2022-12-07T01:05:34;102311.00;;;3.64;100.00
42633;BME280;28261;53.304;-6.284;2022-12-07T01:07:40;102313.63;;;3.64;100.00
42633;BME280;28261;53.304;-6.284;2022-12-07T01:09:55;102313.63;;;3.64;100.00
42633;BME280;28261;53.304;-6.284;2022-12-07T01:12:20;102311.84;;;3.64;100.00
42633;BME280;28261;53.304;-6.284;2022-12-07T01:14:30;102313.63;;;3.64;100.00
42633;BME280;28261;53.304;-6.284;2022-12-07T01:16:49;102313.59;;;3.65;100.00
42633;BME280;28261;53.304;-6.284;2022-12-07T01:19:03;102311.84;;;3.64;100.00
42633;BME280;28261;53.304;-6.284;2022-12-07T01:21:12;102315.34;;;3.66;100.00
42633;BME280;28261;53.304;-6.284;2022-12-07T01:23:22;102309.25;;;3.64;100.00
42633;BME280;28261;53.304;-6.284;2022-12-07T01:25:57;102317.09;;;3.66;100.00
42633;BME280;28261;53.304;-6.284;2022-12-07T01:28:42;102312.72;;;3.66;100.00
42633;BME280;28261;53.304;-6.284;2022-12-07T01:31:20;102310.09;;;3.66;100.00
42633;BME280;28261;53.304;-6.284;2022-12-07T01:33:36;102303.91;;;3.69;100.00
42633;BME280;28261;53.304;-6.284;2022-12-07T01:37:11;102309.16;;;3.69;100.00
42633;BME280;28261;53.304;-6.284;2022-12-07T01:38:54;102301.34;;;3.66;100.00
42633;BME280;28261;53.304;-6.284;2022-12-07T01:41:02;102298.72;;;3.66;100.00
42633;BME280;28261;53.304;-6.284;2022-12-07T01:43:17;102294.34;;;3.65;100.00
42633;BME280;28261;53.304;-6.284;2022-12-07T01:45:42;102290.88;;;3.64;100.00
42633;BME280;28261;53.304;-6.284;2022-12-07T01:47:49;102296.13;;;3.64;100.00
42633;BME280;28261;53.304;-6.284;2022-12-07T01:49:56;102291.72;;;3.65;100.00
42633;BME280;28261;53.304;-6.284;2022-12-07T01:52:09;102285.66;;;3.63;100.00
42633;BME280;28261;53.304;-6.284;2022-12-07T01:54:23;102283.91;;;3.63;100.00
42633;BME280;28261;53.304;-6.284;2022-12-07T01:56:28;102283.06;;;3.61;100.00
42633;BME280;28261;53.304;-6.284;2022-12-07T01:58:33;102283.03;;;3.63;100.00
42633;BME280;28261;53.304;-6.284;2022-12-07T02:00:38;102283.91;;;3.62;100.00
42633;BME280;28261;53.304;-6.284;2022-12-07T02:02:48;102279.56;;;3.59;100.00
42633;BME280;28261;53.304;-6.284;2022-12-07T02:05:01;102277.00;;;3.56;100.00
42633;BME280;28261;53.304;-6.284;2022-12-07T02:07:09;102277.91;;;3.53;100.00
42633;BME280;28261;53.304;-6.284;2022-12-07T02:09:14;102284.00;;;3.54;100.00
42633;BME280;28261;53.304;-6.284;2022-12-07T02:11:22;102282.28;;;3.54;100.00
42633;BME280;28261;53.304;-6.284;2022-12-07T02:13:28;102278.78;;;3.55;100.00
42633;BME280;28261;53.304;-6.284;2022-12-07T02:15:53;102275.22;;;3.56;100.00
42633;BME280;28261;53.304;-6.284;2022-12-07T02:18:12;102276.94;;;3.59;100.00
42633;BME280;28261;53.304;-6.284;2022-12-07T02:20:28;102268.22;;;3.60;100.00
42633;BME280;28261;53.304;-6.284;2022-12-07T02:22:56;102269.94;;;3.61;100.00
42633;BME280;28261;53.304;-6.284;2022-12-07T02:25:08;102268.22;;;3.60;100.00
42633;BME280;28261;53.304;-6.284;2022-12-07T02:27:32;102269.97;;;3.58;100.00
42633;BME280;28261;53.304;-6.284;2022-12-07T02:29:44;102264.72;;;3.58;100.00
42633;BME280;28261;53.304;-6.284;2022-12-07T02:31:56;102262.13;;;3.56;100.00
42633;BME280;28261;53.304;-6.284;2022-12-07T02:34:09;102264.75;;;3.56;100.00
42633;BME280;28261;53.304;-6.284;2022-12-07T02:36:19;102265.63;;;3.57;100.00
42633;BME280;28261;53.304;-6.284;2022-12-07T02:38:33;102270.06;;;3.52;100.00
42633;BME280;28261;53.304;-6.284;2022-12-07T02:40:43;102268.38;;;3.46;100.00
42633;BME280;28261;53.304;-6.284;2022-12-07T02:42:52;102264.94;;;3.43;100.00
42633;BME280;28261;53.304;-6.284;2022-12-07T02:45:01;102264.91;;;3.44;100.00
42633;BME280;28261;53.304;-6.284;2022-12-07T02:47:10;102268.38;;;3.46;100.00
42633;BME280;28261;53.304;-6.284;2022-12-07T02:49:16;102262.25;;;3.47;100.00
42633;BME280;28261;53.304;-6.284;2022-12-07T02:51:21;102261.34;;;3.48;100.00
42633;BME280;28261;53.304;-6.284;2022-12-07T02:53:30;102262.25;;;3.49;100.00
42633;BME280;28261;53.304;-6.284;2022-12-07T02:55:39;102254.38;;;3.49;100.00
42633;BME280;28261;53.304;-6.284;2022-12-07T02:57:55;102254.38;;;3.49;100.00
42633;BME280;28261;53.304;-6.284;2022-12-07T03:00:09;102256.09;;;3.50;100.00
42633;BME280;28261;53.304;-6.284;2022-12-07T03:02:23;102254.38;;;3.49;100.00
42633;BME280;28261;53.304;-6.284;2022-12-07T03:04:36;102246.53;;;3.46;100.00
42633;BME280;28261;53.304;-6.284;2022-12-07T03:06:50;102247.41;;;3.46;100.00
42633;BME280;28261;53.304;-6.284;2022-12-07T03:09:04;102243.06;;;3.45;100.00
42633;BME280;28261;53.304;-6.284;2022-12-07T03:11:15;102245.66;;;3.47;100.00
42633;BME280;28261;53.304;-6.284;2022-12-07T03:13:27;102247.41;;;3.46;100.00
42633;BME280;28261;53.304;-6.284;2022-12-07T03:15:40;102251.78;;;3.46;100.00
42633;BME280;28261;53.304;-6.284;2022-12-07T03:17:48;102245.66;;;3.47;100.00
42633;BME280;28261;53.304;-6.284;2022-12-07T03:19:56;102246.53;;;3.47;100.00
42633;BME280;28261;53.304;-6.284;2022-12-07T03:22:06;102240.41;;;3.47;100.00
42633;BME280;28261;53.304;-6.284;2022-12-07T03:24:14;102238.66;;;3.47;100.00
42633;BME280;28261;53.304;-6.284;2022-12-07T03:26:21;102240.38;;;3.48;100.00
42633;BME280;28261;53.304;-6.284;2022-12-07T03:28:33;102244.75;;;3.49;100.00
42633;BME280;28261;53.304;-6.284;2022-12-07T03:30:44;102236.91;;;3.48;100.00
42633;BME280;28261;53.304;-6.284;2022-12-07T03:32:54;102241.28;;;3.49;100.00
42633;BME280;28261;53.304;-6.284;2022-12-07T03:35:03;102239.53;;;3.48;100.00
42633;BME280;28261;53.304;-6.284;2022-12-07T03:37:14;102240.41;;;3.47;100.00
42633;BME280;28261;53.304;-6.284;2022-12-07T03:39:25;102248.28;;;3.47;100.00
42633;BME280;28261;53.304;-6.284;2022-12-07T03:41:34;102240.41;;;3.47;100.00
42633;BME280;28261;53.304;-6.284;2022-12-07T03:43:46;102233.41;;;3.46;100.00
42633;BME280;28261;53.304;-6.284;2022-12-07T03:46:01;102237.84;;;3.44;100.00
42633;BME280;28261;53.304;-6.284;2022-12-07T03:48:17;102233.47;;;3.43;100.00
42633;BME280;28261;53.304;-6.284;2022-12-07T03:50:28;102230.88;;;3.41;100.00
42633;BME280;28261;53.304;-6.284;2022-12-07T03:52:37;102224.75;;;3.42;100.00
42633;BME280;28261;53.304;-6.284;2022-12-07T03:54:49;102227.41;;;3.41;100.00
42633;BME280;28261;53.304;-6.284;2022-12-07T03:56:55;102227.41;;;3.39;100.00
42633;BME280;28261;53.304;-6.284;2022-12-07T03:59:01;102226.47;;;3.42;100.00
42633;BME280;28261;53.304;-6.284;2022-12-07T04:01:10;102224.78;;;3.41;100.00
42633;BME280;28261;53.304;-6.284;2022-12-07T04:03:15;102226.53;;;3.38;100.00
42633;BME280;28261;53.304;-6.284;2022-12-07T04:05:19;102221.34;;;3.35;100.00
42633;BME280;28261;53.304;-6.284;2022-12-07T04:07:24;102219.59;;;3.34;100.00
42633;BME280;28261;53.304;-6.284;2022-12-07T04:09:29;102219.59;;;3.34;100.00
42633;BME280;28261;53.304;-6.284;2022-12-07T04:11:35;102223.09;;;3.35;100.00
42633;BME280;28261;53.304;-6.284;2022-12-07T04:13:40;102217.84;;;3.33;100.00
42633;BME280;28261;53.304;-6.284;2022-12-07T04:16:01;102215.25;;;3.32;100.00
42633;BME280;28261;53.304;-6.284;2022-12-07T04:18:07;102215.28;;;3.30;100.00
42633;BME280;28261;53.304;-6.284;2022-12-07T04:20:12;102212.69;;;3.29;100.00
42633;BME280;28261;53.304;-6.284;2022-12-07T04:22:16;102209.19;;;3.27;100.00
42633;BME280;28261;53.304;-6.284;2022-12-07T04:24:21;102206.56;;;3.27;100.00
42633;BME280;28261;53.304;-6.284;2022-12-07T04:26:26;102203.09;;;3.26;100.00
42633;BME280;28261;53.304;-6.284;2022-12-07T04:28:30;102209.22;;;3.25;100.00
42633;BME280;28261;53.304;-6.284;2022-12-07T04:30:34;102204.03;;;3.22;100.00
42633;BME280;28261;53.304;-6.284;2022-12-07T04:32:39;102203.16;;;3.21;100.00
42633;BME280;28261;53.304;-6.284;2022-12-07T04:34:46;102202.31;;;3.19;100.00
42633;BME280;28261;53.304;-6.284;2022-12-07T04:36:56;102201.44;;;3.19;100.00
42633;BME280;28261;53.304;-6.284;2022-12-07T04:39:01;102197.09;;;3.18;100.00
42633;BME280;28261;53.304;-6.284;2022-12-07T04:41:06;102196.22;;;3.17;100.00
42633;BME280;28261;53.304;-6.284;2022-12-07T04:43:10;102191.00;;;3.16;100.00
42633;BME280;28261;53.304;-6.284;2022-12-07T04:45:14;102190.13;;;3.15;100.00
42633;BME280;28261;53.304;-6.284;2022-12-07T04:47:18;102191.91;;;3.13;100.00
42633;BME280;28261;53.304;-6.284;2022-12-07T04:49:22;102195.41;;;3.12;100.00
42633;BME280;28261;53.304;-6.284;2022-12-07T04:51:28;102195.38;;;3.14;100.00
42633;BME280;28261;53.304;-6.284;2022-12-07T04:53:31;102193.63;;;3.16;100.00
42633;BME280;28261;53.304;-6.284;2022-12-07T04:55:36;102188.38;;;3.16;100.00
42633;BME280;28261;53.304;-6.284;2022-12-07T04:57:39;102191.84;;;3.18;100.00
42633;BME280;28261;53.304;-6.284;2022-12-07T04:59:42;102185.78;;;3.16;100.00
42633;BME280;28261;53.304;-6.284;2022-12-07T05:01:47;102190.09;;;3.17;100.00
42633;BME280;28261;53.304;-6.284;2022-12-07T05:03:50;102189.22;;;3.18;100.00
42633;BME280;28261;53.304;-6.284;2022-12-07T05:05:54;102190.09;;;3.17;100.00
42633;BME280;28261;53.304;-6.284;2022-12-07T05:07:58;102187.47;;;3.18;100.00
42633;BME280;28261;53.304;-6.284;2022-12-07T05:10:02;102187.47;;;3.17;100.00
42633;BME280;28261;53.304;-6.284;2022-12-07T05:12:06;102192.69;;;3.18;100.00
42633;BME280;28261;53.304;-6.284;2022-12-07T05:14:12;102185.75;;;3.17;100.00
42633;BME280;28261;53.304;-6.284;2022-12-07T05:16:16;102197.94;;;3.18;100.00
42633;BME280;28261;53.304;-6.284;2022-12-07T05:18:19;102195.34;;;3.17;100.00
42633;BME280;28261;53.304;-6.284;2022-12-07T05:20:23;102198.88;;;3.16;100.00
42633;BME280;28261;53.304;-6.284;2022-12-07T05:22:27;102198.88;;;3.16;100.00
42633;BME280;28261;53.304;-6.284;2022-12-07T05:24:32;102196.22;;;3.17;100.00
42633;BME280;28261;53.304;-6.284;2022-12-07T05:26:35;102200.59;;;3.17;100.00
42633;BME280;28261;53.304;-6.284;2022-12-07T05:28:39;102193.63;;;3.16;100.00
42633;BME280;28261;53.304;-6.284;2022-12-07T05:30:43;102192.72;;;3.17;100.00
42633;BME280;28261;53.304;-6.284;2022-12-07T05:32:46;102197.97;;;3.17;100.00
42633;BME280;28261;53.304;-6.284;2022-12-07T05:34:50;102198.88;;;3.16;100.00
42633;BME280;28261;53.304;-6.284;2022-12-07T05:36:54;102198.84;;;3.17;100.00
42633;BME280;28261;53.304;-6.284;2022-12-07T05:38:58;102197.97;;;3.17;100.00
42633;BME280;28261;53.304;-6.284;2022-12-07T05:41:05;102196.22;;;3.17;100.00
42633;BME280;28261;53.304;-6.284;2022-12-07T05:43:10;102200.59;;;3.17;100.00
42633;BME280;28261;53.304;-6.284;2022-12-07T05:45:12;102198.00;;;3.15;100.00
42633;BME280;28261;53.304;-6.284;2022-12-07T05:47:16;102193.63;;;3.16;100.00
42633;BME280;28261;53.304;-6.284;2022-12-07T05:49:19;102191.00;;;3.16;100.00
42633;BME280;28261;53.304;-6.284;2022-12-07T05:51:23;102189.25;;;3.16;100.00
42633;BME280;28261;53.304;-6.284;2022-12-07T05:53:27;102193.63;;;3.16;100.00
42633;BME280;28261;53.304;-6.284;2022-12-07T05:55:31;102189.25;;;3.16;100.00
42633;BME280;28261;53.304;-6.284;2022-12-07T05:57:36;102189.22;;;3.18;100.00
42633;BME280;28261;53.304;-6.284;2022-12-07T05:59:40;102180.53;;;3.16;100.00
42633;BME280;28261;53.304;-6.284;2022-12-07T06:01:42;102186.63;;;3.16;100.00
42633;BME280;28261;53.304;-6.284;2022-12-07T06:03:46;102184.00;;;3.16;100.00
42633;BME280;28261;53.304;-6.284;2022-12-07T06:05:53;102184.84;;;3.17;100.00
42633;BME280;28261;53.304;-6.284;2022-12-07T06:07:57;102181.34;;;3.18;100.00
42633;BME280;28261;53.304;-6.284;2022-12-07T06:10:07;102186.63;;;3.16;100.00
42633;BME280;28261;53.304;-6.284;2022-12-07T06:12:12;102182.22;;;3.18;100.00
42633;BME280;28261;53.304;-6.284;2022-12-07T06:14:34;102173.50;;;3.18;100.00
42633;BME280;28261;53.304;-6.284;2022-12-07T06:16:38;102183.13;;;3.17;100.00
42633;BME280;28261;53.304;-6.284;2022-12-07T06:18:48;102178.75;;;3.18;100.00
42633;BME280;28261;53.304;-6.284;2022-12-07T06:20:52;102172.66;;;3.16;100.00
42633;BME280;28261;53.304;-6.284;2022-12-07T06:22:55;102173.53;;;3.16;100.00
42633;BME280;28261;53.304;-6.284;2022-12-07T06:24:59;102170.91;;;3.16;100.00
42633;BME280;28261;53.304;-6.284;2022-12-07T06:27:10;102171.75;;;3.17;100.00
42633;BME280;28261;53.304;-6.284;2022-12-07T06:29:13;102173.53;;;3.16;100.00
42633;BME280;28261;53.304;-6.284;2022-12-07T06:31:18;102173.53;;;3.16;100.00
42633;BME280;28261;53.304;-6.284;2022-12-07T06:33:22;102167.44;;;3.16;100.00
42633;BME280;28261;53.304;-6.284;2022-12-07T06:35:25;102179.63;;;3.17;100.00
42633;BME280;28261;53.304;-6.284;2022-12-07T06:37:29;102181.41;;;3.15;100.00
42633;BME280;28261;53.304;-6.284;2022-12-07T06:39:32;102167.44;;;3.16;100.00
42633;BME280;28261;53.304;-6.284;2022-12-07T06:41:36;102170.06;;;3.16;100.00
42633;BME280;28261;53.304;-6.284;2022-12-07T06:44:18;102158.69;;;3.14;100.00
42633;BME280;28261;53.304;-6.284;2022-12-07T06:46:23;102163.94;;;3.14;100.00
42633;BME280;28261;53.304;-6.284;2022-12-07T06:48:27;102156.97;;;3.13;100.00
42633;BME280;28261;53.304;-6.284;2022-12-07T06:50:30;102162.19;;;3.13;100.00
42633;BME280;28261;53.304;-6.284;2022-12-07T06:52:34;102156.97;;;3.13;100.00
42633;BME280;28261;53.304;-6.284;2022-12-07T06:54:37;102160.50;;;3.12;100.00
42633;BME280;28261;53.304;-6.284;2022-12-07T06:56:40;102164.84;;;3.11;100.00
42633;BME280;28261;53.304;-6.284;2022-12-07T06:58:44;102164.03;;;3.09;100.00
42633;BME280;28261;53.304;-6.284;2022-12-07T07:00:48;102167.50;;;3.08;100.00
42633;BME280;28261;53.304;-6.284;2022-12-07T07:02:53;102163.16;;;3.07;100.00
42633;BME280;28261;53.304;-6.284;2022-12-07T07:04:57;102165.78;;;3.05;100.00
42633;BME280;28261;53.304;-6.284;2022-12-07T07:07:00;102159.69;;;3.05;100.00
42633;BME280;28261;53.304;-6.284;2022-12-07T07:09:03;102158.84;;;3.03;100.00
42633;BME280;28261;53.304;-6.284;2022-12-07T07:11:08;102162.34;;;3.00;100.00
42633;BME280;28261;53.304;-6.284;2022-12-07T07:13:20;102158.03;;;2.96;100.00
42633;BME280;28261;53.304;-6.284;2022-12-07T07:15:24;102156.31;;;2.95;100.00
42633;BME280;28261;53.304;-6.284;2022-12-07T07:17:28;102158.97;;;2.92;100.00
42633;BME280;28261;53.304;-6.284;2022-12-07T07:19:33;102155.53;;;2.88;100.00
42633;BME280;28261;53.304;-6.284;2022-12-07T07:21:36;102159.06;;;2.86;100.00
42633;BME280;28261;53.304;-6.284;2022-12-07T07:23:40;102150.38;;;2.81;100.00
42633;BME280;28261;53.304;-6.284;2022-12-07T07:25:44;102156.56;;;2.75;100.00
42633;BME280;28261;53.304;-6.284;2022-12-07T07:27:48;102155.72;;;2.71;100.00
42633;BME280;28261;53.304;-6.284;2022-12-07T07:29:51;102158.41;;;2.67;100.00
42633;BME280;28261;53.304;-6.284;2022-12-07T07:31:54;102154.09;;;2.61;100.00
42633;BME280;28261;53.304;-6.284;2022-12-07T07:34:05;102149.78;;;2.57;100.00
42633;BME280;28261;53.304;-6.284;2022-12-07T07:36:10;102153.31;;;2.51;100.00
42633;BME280;28261;53.304;-6.284;2022-12-07T07:38:14;102150.69;;;2.50;100.00
42633;BME280;28261;53.304;-6.284;2022-12-07T07:40:17;102163.81;;;2.48;100.00
42633;BME280;28261;53.304;-6.284;2022-12-07T07:42:21;102159.47;;;2.46;100.00
42633;BME280;28261;53.304;-6.284;2022-12-07T07:44:24;102163.88;;;2.42;100.00
42633;BME280;28261;53.304;-6.284;2022-12-07T07:46:35;102172.59;;;2.43;100.00
42633;BME280;28261;53.304;-6.284;2022-12-07T07:48:39;102166.53;;;2.41;100.00
42633;BME280;28261;53.304;-6.284;2022-12-07T07:50:42;102164.81;;;2.38;100.00
42633;BME280;28261;53.304;-6.284;2022-12-07T07:52:47;102164.81;;;2.36;100.00
42633;BME280;28261;53.304;-6.284;2022-12-07T07:54:50;102162.22;;;2.33;100.00
42633;BME280;28261;53.304;-6.284;2022-12-07T07:56:53;102164.00;;;2.31;100.00
42633;BME280;28261;53.304;-6.284;2022-12-07T07:58:57;102161.41;;;2.30;100.00
42633;BME280;28261;53.304;-6.284;2022-12-07T08:01:03;102158.75;;;2.28;100.00
42633;BME280;28261;53.304;-6.284;2022-12-07T08:03:07;102161.38;;;2.28;100.00
42633;BME280;28261;53.304;-6.284;2022-12-07T08:05:12;102166.63;;;2.27;100.00
42633;BME280;28261;53.304;-6.284;2022-12-07T08:07:16;102164.00;;;2.27;100.00
42633;BME280;28261;53.304;-6.284;2022-12-07T08:09:21;102170.16;;;2.26;100.00
42633;BME280;28261;53.304;-6.284;2022-12-07T08:11:24;102166.66;;;2.25;100.00
42633;BME280;28261;53.304;-6.284;2022-12-07T08:13:28;102169.25;;;2.27;100.00
42633;BME280;28261;53.304;-6.284;2022-12-07T08:15:32;102164.91;;;2.27;100.00
42633;BME280;28261;53.304;-6.284;2022-12-07T08:17:36;102170.13;;;2.27;100.00
42633;BME280;28261;53.304;-6.284;2022-12-07T08:19:39;102165.75;;;2.29;100.00
42633;BME280;28261;53.304;-6.284;2022-12-07T08:21:43;102161.38;;;2.28;100.00
42633;BME280;28261;53.304;-6.284;2022-12-07T08:23:46;102165.75;;;2.29;100.00
42633;BME280;28261;53.304;-6.284;2022-12-07T08:25:51;102162.28;;;2.27;100.00
42633;BME280;28261;53.304;-6.284;2022-12-07T08:27:54;102165.78;;;2.26;100.00
42633;BME280;28261;53.304;-6.284;2022-12-07T08:29:57;102164.91;;;2.24;100.00
42633;BME280;28261;53.304;-6.284;2022-12-07T08:32:02;102163.19;;;2.23;100.00
42633;BME280;28261;53.304;-6.284;2022-12-07T08:34:10;102157.97;;;2.20;100.00
42633;BME280;28261;53.304;-6.284;2022-12-07T08:36:14;102167.56;;;2.19;100.00
42633;BME280;28261;53.304;-6.284;2022-12-07T08:38:18;102160.63;;;2.17;100.00
42633;BME280;28261;53.304;-6.284;2022-12-07T08:40:21;102161.50;;;2.14;100.00
42633;BME280;28261;53.304;-6.284;2022-12-07T08:42:26;102162.41;;;2.13;100.00
42633;BME280;28261;53.304;-6.284;2022-12-07T08:44:31;102161.53;;;2.11;100.00
42633;BME280;28261;53.304;-6.284;2022-12-07T08:46:36;102164.19;;;2.08;100.00
42633;BME280;28261;53.304;-6.284;2022-12-07T08:48:44;102156.34;;;2.08;100.00
42633;BME280;28261;53.304;-6.284;2022-12-07T08:50:50;102158.09;;;2.05;100.00
42633;BME280;28261;53.304;-6.284;2022-12-07T08:52:55;102151.13;;;2.03;100.00
42633;BME280;28261;53.304;-6.284;2022-12-07T08:55:00;102158.16;;;2.01;100.00
42633;BME280;28261;53.304;-6.284;2022-12-07T08:57:05;102153.78;;;2.00;100.00
42633;BME280;28261;53.304;-6.284;2022-12-07T08:59:12;102151.16;;;2.00;100.00
42633;BME280;28261;53.304;-6.284;2022-12-07T09:01:17;102157.28;;;1.99;100.00
42633;BME280;28261;53.304;-6.284;2022-12-07T09:03:20;102159.03;;;1.97;100.00
42633;BME280;28261;53.304;-6.284;2022-12-07T09:05:24;102158.19;;;1.98;100.00
42633;BME280;28261;53.304;-6.284;2022-12-07T09:07:27;102163.41;;;1.98;100.00
42633;BME280;28261;53.304;-6.284;2022-12-07T09:09:33;102163.41;;;1.97;100.00
42633;BME280;28261;53.304;-6.284;2022-12-07T09:11:36;102158.19;;;1.95;100.00
42633;BME280;28261;53.304;-6.284;2022-12-07T09:13:41;102156.47;;;1.94;100.00
42633;BME280;28261;53.304;-6.284;2022-12-07T09:15:45;102152.94;;;1.95;100.00
42633;BME280;28261;53.304;-6.284;2022-12-07T09:17:49;102158.19;;;1.95;100.00
42633;BME280;28261;53.304;-6.284;2022-12-07T09:19:52;102152.94;;;1.95;100.00
42633;BME280;28261;53.304;-6.284;2022-12-07T09:21:55;102160.78;;;1.98;100.00
42633;BME280;28261;53.304;-6.284;2022-12-07T09:23:58;102161.63;;;2.00;100.00
42633;BME280;28261;53.304;-6.284;2022-12-07T09:26:02;102158.97;;;2.03;100.00
42633;BME280;28261;53.304;-6.284;2022-12-07T09:28:11;102146.78;;;2.06;100.00
42633;BME280;28261;53.304;-6.284;2022-12-07T09:30:15;102153.72;;;2.08;100.00
42633;BME280;28261;53.304;-6.284;2022-12-07T09:32:20;102158.06;;;2.11;100.00
42633;BME280;28261;53.304;-6.284;2022-12-07T09:34:23;102158.94;;;2.11;100.00
42633;BME280;28261;53.304;-6.284;2022-12-07T09:36:28;102170.25;;;2.12;100.00
42633;BME280;28261;53.304;-6.284;2022-12-07T09:38:32;102162.44;;;2.07;100.00
42633;BME280;28261;53.304;-6.284;2022-12-07T09:40:35;102165.09;;;2.06;100.00
42633;BME280;28261;53.304;-6.284;2022-12-07T09:42:41;102165.91;;;2.08;100.00
42633;BME280;28261;53.304;-6.284;2022-12-07T09:44:46;102170.28;;;2.09;100.00
42633;BME280;28261;53.304;-6.284;2022-12-07T09:46:49;102156.34;;;2.08;100.00
42633;BME280;28261;53.304;-6.284;2022-12-07T09:48:56;102161.56;;;2.10;100.00
42633;BME280;28261;53.304;-6.284;2022-12-07T09:51:00;102165.03;;;2.10;100.00
42633;BME280;28261;53.304;-6.284;2022-12-07T09:53:08;102158.06;;;2.11;100.00
42633;BME280;28261;53.304;-6.284;2022-12-07T09:55:16;102165.00;;;2.12;100.00
42633;BME280;28261;53.304;-6.284;2022-12-07T09:57:28;102163.28;;;2.12;100.00
42633;BME280;28261;53.304;-6.284;2022-12-07T09:59:33;102161.53;;;2.13;100.00
42633;BME280;28261;53.304;-6.284;2022-12-07T10:01:39;102161.53;;;2.13;100.00
42633;BME280;28261;53.304;-6.284;2022-12-07T10:03:47;102156.28;;;2.13;100.00
42633;BME280;28261;53.304;-6.284;2022-12-07T10:05:53;102148.44;;;2.13;100.00
42633;BME280;28261;53.304;-6.284;2022-12-07T10:07:57;102145.81;;;2.13;100.00
42633;BME280;28261;53.304;-6.284;2022-12-07T10:10:03;102147.56;;;2.14;100.00
42633;BME280;28261;53.304;-6.284;2022-12-07T10:12:08;102143.19;;;2.16;100.00
42633;BME280;28261;53.304;-6.284;2022-12-07T10:14:12;102142.28;;;2.20;100.00
42633;BME280;28261;53.304;-6.284;2022-12-07T10:16:40;102144.84;;;2.26;100.00
42633;BME280;28261;53.304;-6.284;2022-12-07T10:18:44;102143.91;;;2.33;100.00
42633;BME280;28261;53.304;-6.284;2022-12-07T10:20:48;102149.94;;;2.40;100.00
42633;BME280;28261;53.304;-6.284;2022-12-07T10:23:04;102147.22;;;2.51;100.00
42633;BME280;28261;53.304;-6.284;2022-12-07T10:25:09;102144.47;;;2.62;100.00
42633;BME280;28261;53.304;-6.284;2022-12-07T10:27:26;102139.09;;;2.74;100.00
42633;BME280;28261;53.304;-6.284;2022-12-07T10:29:31;102138.16;;;2.80;100.00
42633;BME280;28261;53.304;-6.284;2022-12-07T10:31:38;102130.25;;;2.86;100.00
42633;BME280;28261;53.304;-6.284;2022-12-07T10:33:49;102125.78;;;2.91;99.47
42633;BME280;28261;53.304;-6.284;2022-12-07T10:35:53;102122.28;;;2.94;98.91
42633;BME280;28261;53.304;-6.284;2022-12-07T10:37:58;102124.88;;;2.97;98.65
42633;BME280;28261;53.304;-6.284;2022-12-07T10:40:25;102128.34;;;2.97;99.24
42633;BME280;28261;53.304;-6.284;2022-12-07T10:42:30;102123.97;;;2.99;99.37
42633;BME280;28261;53.304;-6.284;2022-12-07T10:44:34;102112.56;;;3.02;99.32
42633;BME280;28261;53.304;-6.284;2022-12-07T10:46:56;102109.91;;;3.07;99.17
42633;BME280;28261;53.304;-6.284;2022-12-07T10:49:24;102113.31;;;3.12;99.48
42633;BME280;28261;53.304;-6.284;2022-12-07T10:51:38;102105.38;;;3.18;99.18
42633;BME280;28261;53.304;-6.284;2022-12-07T10:53:54;102106.19;;;3.23;98.33
42633;BME280;28261;53.304;-6.284;2022-12-07T10:58:50;102104.34;;;3.27;97.83
42633;BME280;28261;53.304;-6.284;2022-12-07T11:01:01;102099.16;;;3.25;97.19
42633;BME280;28261;53.304;-6.284;2022-12-07T11:05:48;102096.53;;;3.25;96.82
42633;BME280;28261;53.304;-6.284;2022-12-07T11:08:03;102093.09;;;3.21;96.83